createdAt,value
2023-11-30T05:24:35.663Z,22.40
2023-11-30T05:28:39.477Z,22.40
2023-11-30T05:32:42.469Z,22.35
2023-11-30T05:36:45.536Z,18.63
2023-11-30T05:40:48.356Z,18.73
2023-11-30T05:44:51.621Z,17.67
2023-11-30T05:48:55.453Z,20.80
2023-11-30T05:52:58.722Z,18.37
2023-11-30T05:57:02.737Z,25.88
2023-11-30T06:01:06.064Z,25.23
2023-11-30T06:05:09.315Z,30.00
2023-11-30T06:09:12.092Z,22.15
2023-11-30T06:13:16.918Z,22.17
2023-11-30T06:17:20.197Z,21.03
2023-11-30T06:21:23.366Z,23.33
2023-11-30T06:25:26.157Z,21.70
2023-11-30T06:29:30.602Z,20.53
2023-11-30T06:33:33.246Z,22.05
2023-11-30T06:37:36.382Z,21.25
2023-11-30T06:41:39.277Z,19.70
2023-11-30T06:45:42.754Z,23.17
2023-11-30T06:49:46.644Z,37.50
2023-11-30T06:53:49.697Z,23.30
2023-11-30T06:57:52.462Z,28.42
2023-11-30T07:01:55.572Z,26.87
2023-11-30T07:05:59.086Z,19.95
2023-11-30T07:10:02.422Z,20.93
2023-11-30T07:14:05.168Z,38.47
2023-11-30T07:18:10.377Z,35.17
2023-11-30T07:22:13.367Z,42.37
2023-11-30T07:26:16.887Z,48.28
2023-11-30T07:30:19.728Z,53.63
2023-11-30T07:34:22.873Z,28.17
2023-11-30T07:38:25.703Z,26.42
2023-11-30T07:42:35.115Z,21.10
2023-11-30T07:46:40.161Z,25.37
2023-11-30T07:50:43.186Z,19.85
2023-11-30T07:54:45.937Z,19.02
2023-11-30T07:58:50.069Z,24.55
2023-11-30T08:02:54.063Z,21.33
2023-11-30T08:06:57.754Z,21.48
2023-11-30T08:11:02.482Z,28.02
2023-11-30T08:15:08.385Z,46.20
2023-11-30T08:19:11.833Z,52.95
2023-11-30T08:23:15.719Z,27.62
2023-11-30T08:27:20.029Z,23.17
2023-11-30T08:31:23.835Z,31.02
2023-11-30T08:35:28.635Z,26.00
2023-11-30T08:39:32.920Z,24.33
2023-11-30T08:43:35.915Z,28.53
2023-11-30T08:47:44.207Z,26.83
2023-11-30T08:51:47.323Z,31.92
2023-11-30T08:55:50.700Z,37.13
2023-11-30T08:59:53.633Z,37.15
2023-11-30T09:04:06.601Z,49.47
2023-11-30T09:08:09.533Z,34.80
2023-11-30T09:12:13.092Z,22.62
2023-11-30T09:16:15.984Z,24.15
2023-11-30T09:20:21.434Z,28.87
2023-11-30T09:24:24.619Z,27.30
2023-11-30T09:28:28.010Z,22.30
2023-11-30T09:32:30.964Z,23.48
2023-11-30T09:36:34.636Z,24.33
2023-11-30T09:40:37.674Z,23.23
2023-11-30T09:44:41.080Z,20.67
2023-11-30T09:48:44.437Z,24.97
2023-11-30T09:52:47.967Z,22.80
2023-11-30T09:56:50.785Z,25.58
2023-11-30T10:00:53.873Z,25.12
2023-11-30T10:04:58.582Z,20.33
2023-11-30T10:09:03.354Z,23.80
2023-11-30T10:13:07.172Z,22.55
2023-11-30T10:17:10.283Z,26.40
2023-11-30T10:21:13.964Z,23.77
2023-11-30T10:25:18.663Z,30.00
2023-11-30T10:29:28.319Z,28.63
2023-11-30T10:33:35.992Z,24.90
2023-11-30T10:37:45.282Z,28.38
2023-11-30T10:41:54.256Z,27.77
2023-11-30T10:45:59.716Z,29.17
2023-11-30T10:50:02.647Z,28.52
2023-11-30T10:54:12.113Z,23.87
2023-11-30T10:58:21.025Z,26.87
2023-11-30T11:02:24.145Z,24.27
2023-11-30T11:06:27.952Z,27.27
2023-11-30T11:10:40.512Z,23.13
2023-11-30T11:14:43.304Z,29.08
2023-11-30T11:18:46.520Z,24.77
2023-11-30T11:22:50.939Z,20.98
2023-11-30T11:27:00.923Z,21.80
2023-11-30T11:31:04.603Z,24.65
2023-11-30T11:35:08.609Z,24.23
2023-11-30T11:39:20.535Z,19.90
2023-11-30T11:43:24.196Z,22.40
2023-11-30T11:47:33.712Z,25.45
2023-11-30T11:51:46.953Z,23.67
2023-11-30T11:55:49.844Z,26.73
2023-11-30T11:59:53.957Z,29.02
2023-11-30T12:03:56.897Z,38.55
2023-11-30T12:08:01.620Z,39.00
2023-11-30T12:12:11.220Z,36.13
2023-11-30T12:16:14.648Z,43.95
2023-11-30T12:20:20.176Z,33.60
2023-11-30T12:24:23.891Z,35.95
2023-11-30T12:28:35.093Z,31.60
2023-11-30T12:32:41.804Z,25.93
2023-11-30T12:36:50.160Z,27.55
2023-11-30T12:40:54.702Z,30.12
2023-11-30T12:44:57.458Z,32.78
2023-11-30T12:49:00.930Z,24.40
2023-11-30T12:53:03.801Z,25.75
2023-11-30T12:57:07.153Z,21.92
2023-11-30T13:01:09.860Z,24.90
2023-11-30T13:05:14.424Z,23.15
2023-11-30T13:09:17.284Z,26.52
2023-11-30T13:13:26.211Z,31.80
2023-11-30T13:17:35.375Z,47.30
2023-11-30T13:21:39.470Z,39.55
2023-11-30T13:25:42.922Z,32.43
2023-11-30T13:29:47.161Z,32.92
2023-11-30T13:33:52.639Z,26.15
2023-11-30T13:37:59.412Z,25.02
2023-11-30T13:42:02.973Z,29.43
2023-11-30T13:46:07.360Z,25.75
2023-11-30T13:50:20.523Z,31.98
2023-11-30T13:54:33.489Z,20.63
2023-11-30T13:58:36.473Z,15.38
2023-11-30T14:02:40.937Z,18.67
2023-11-30T14:06:45.446Z,21.67
2023-11-30T14:10:48.505Z,17.00
2023-11-30T14:14:52.841Z,17.10
2023-11-30T14:18:56.114Z,16.40
2023-11-30T14:22:59.821Z,18.97
2023-11-30T14:27:04.520Z,23.87
2023-11-30T14:31:08.834Z,24.12
2023-11-30T14:35:13.289Z,19.93
2023-11-30T14:39:16.419Z,17.45
2023-11-30T14:43:19.194Z,18.70
2023-11-30T14:47:37.508Z,17.13
2023-11-30T14:51:40.370Z,14.40
2023-11-30T14:55:43.451Z,14.05
2023-11-30T14:59:48.126Z,13.18
2023-11-30T15:03:51.277Z,9.97
2023-11-30T15:07:54.316Z,11.65
2023-11-30T15:11:57.700Z,11.35
2023-11-30T15:16:00.783Z,16.23
2023-11-30T15:20:05.159Z,17.92
2023-11-30T15:24:08.180Z,17.08
2023-11-30T15:28:12.929Z,16.73
2023-11-30T15:32:15.615Z,17.27
2023-11-30T15:36:19.658Z,16.95
2023-11-30T15:40:22.741Z,10.23
2023-11-30T15:44:26.187Z,11.40
